createdAt,value
2018-06-04T00:01:21.247Z,82.87
2018-06-04T00:03:50.619Z,83.42
2018-06-04T00:06:19.625Z,84.13
2018-06-04T00:08:48.886Z,84.04
2018-06-04T00:11:18.005Z,84.38
2018-06-04T00:13:47.053Z,83.86
2018-06-04T00:16:16.075Z,84.51
2018-06-04T00:18:45.163Z,84.29
2018-06-04T00:21:14.189Z,84.67
2018-06-04T00:23:43.413Z,85.21
2018-06-04T00:26:12.450Z,85.28
2018-06-04T00:28:41.591Z,85.42
2018-06-04T00:31:10.609Z,85.38
2018-06-04T00:33:44.596Z,85.79
2018-06-04T00:36:13.640Z,86.47
2018-06-04T00:38:42.664Z,86.94
2018-06-04T00:41:11.686Z,86.49
2018-06-04T00:43:40.780Z,86.18
2018-06-04T00:46:10.059Z,85.60
2018-06-04T00:48:39.356Z,85.71
2018-06-04T00:51:08.412Z,85.83
2018-06-04T00:53:37.536Z,85.58
2018-06-04T00:56:19.548Z,85.48
2018-06-04T00:58:48.572Z,85.46
2018-06-04T01:01:17.668Z,85.46
2018-06-04T01:03:46.814Z,85.57
2018-06-04T01:06:15.869Z,85.85
2018-06-04T01:08:45.501Z,86.21
2018-06-04T01:11:14.536Z,86.33
2018-06-04T01:13:43.541Z,86.35
2018-06-04T01:16:12.952Z,86.27
2018-06-04T01:18:41.953Z,85.57
2018-06-04T01:21:10.970Z,85.89
2018-06-04T01:23:40.339Z,85.74
2018-06-04T01:26:09.340Z,85.34
2018-06-04T01:28:38.364Z,85.20
2018-06-04T01:31:08.329Z,85.57
2018-06-04T01:33:38.361Z,85.92
2018-06-04T01:36:07.416Z,85.49
2018-06-04T01:38:36.447Z,85.58
2018-06-04T01:41:05.507Z,85.43
2018-06-04T01:56:34.575Z,88.52
2018-06-04T01:59:03.613Z,89.11
2018-06-04T02:01:32.641Z,89.25
2018-06-04T02:04:01.697Z,89.29
2018-06-04T02:06:30.745Z,89.29
2018-06-04T02:08:59.750Z,89.48
2018-06-04T02:11:28.869Z,89.35
2018-06-04T02:13:57.861Z,89.25
2018-06-04T02:16:26.911Z,88.76
2018-06-04T02:18:55.932Z,88.36
2018-06-04T02:21:24.988Z,88.13
2018-06-04T02:23:54.023Z,88.25
2018-06-04T02:26:23.046Z,88.34
2018-06-04T02:28:52.136Z,88.21
2018-06-04T02:31:21.200Z,88.31
2018-06-04T02:33:50.263Z,88.36
2018-06-04T02:36:19.338Z,88.26
2018-06-04T02:38:48.339Z,88.00
2018-06-04T02:41:17.437Z,87.94
2018-06-04T02:43:46.458Z,88.04
2018-06-04T02:46:15.442Z,87.73
2018-06-04T02:48:44.766Z,87.51
2018-06-04T02:51:13.998Z,87.24
2018-06-04T02:53:43.083Z,87.08
2018-06-04T02:56:12.845Z,87.44
2018-06-04T02:58:41.846Z,87.72
2018-06-04T03:01:11.036Z,87.92
2018-06-04T03:03:40.038Z,87.99
2018-06-04T03:06:09.060Z,88.20
2018-06-04T03:08:38.492Z,88.08
2018-06-04T03:11:07.513Z,87.99
2018-06-04T03:13:36.932Z,88.15
2018-06-04T03:16:05.970Z,87.85
2018-06-04T03:18:34.967Z,87.44
2018-06-04T03:21:04.302Z,87.47
2018-06-04T03:23:33.343Z,87.60
2018-06-04T03:26:02.348Z,87.58
2018-06-04T03:28:31.361Z,87.37
2018-06-04T03:31:00.441Z,87.41
2018-06-04T03:33:29.661Z,87.39
2018-06-04T03:35:58.713Z,87.78
2018-06-04T03:38:27.737Z,88.03
2018-06-04T03:40:56.761Z,88.14
2018-06-04T03:43:26.119Z,88.21
2018-06-04T03:45:55.174Z,87.81
2018-06-04T03:48:24.211Z,88.08
2018-06-04T03:50:53.390Z,88.10
2018-06-04T03:53:22.603Z,87.87
2018-06-04T03:55:51.732Z,88.01
2018-06-04T03:58:21.629Z,88.16
2018-06-04T04:00:50.776Z,88.12
2018-06-04T04:03:19.774Z,87.78
2018-06-04T04:05:48.818Z,87.78
2018-06-04T04:08:17.893Z,87.58
2018-06-04T04:10:46.912Z,87.66
2018-06-04T04:13:15.960Z,87.64
2018-06-04T04:15:45.087Z,87.71
2018-06-04T04:18:14.370Z,87.61
2018-06-04T04:20:43.452Z,87.44
2018-06-04T04:23:12.675Z,87.38
2018-06-04T04:25:41.712Z,87.17
2018-06-04T04:28:10.713Z,87.38
2018-06-04T04:30:39.731Z,87.32
2018-06-04T04:33:08.943Z,87.54
2018-06-04T04:35:38.005Z,87.12
2018-06-04T04:38:07.025Z,87.15
2018-06-04T04:40:36.082Z,87.09
2018-06-04T04:43:05.185Z,87.09
2018-06-04T04:45:34.245Z,86.98
2018-06-04T04:48:03.342Z,87.02
2018-06-04T04:50:32.712Z,86.57
2018-06-04T04:53:01.735Z,86.35
2018-06-04T04:55:30.765Z,86.06
2018-06-04T04:57:59.813Z,85.99
2018-06-04T05:00:28.845Z,85.87
2018-06-04T05:02:58.762Z,85.82
2018-06-04T05:05:28.395Z,85.98
2018-06-04T05:07:57.455Z,86.12
2018-06-04T05:10:26.491Z,85.97
2018-06-04T05:12:55.890Z,85.91
2018-06-04T05:15:24.925Z,86.08
2018-06-04T05:17:53.923Z,86.13
2018-06-04T05:20:22.960Z,86.14
2018-06-04T05:22:52.019Z,85.99
2018-06-04T05:25:21.105Z,86.00
2018-06-04T05:27:50.141Z,85.95
2018-06-04T05:30:19.186Z,86.02
2018-06-04T05:32:48.191Z,86.16
2018-06-04T05:35:17.990Z,86.61
2018-06-04T05:37:46.998Z,86.68
2018-06-04T05:40:16.113Z,86.47
2018-06-04T05:42:45.120Z,86.34
2018-06-04T05:45:14.133Z,86.21
2018-06-04T05:47:43.156Z,86.05
2018-06-04T05:50:12.374Z,86.11
2018-06-04T05:52:41.372Z,85.42
2018-06-04T05:55:10.387Z,85.42
2018-06-04T05:57:39.391Z,85.42
2018-06-04T06:00:08.428Z,84.99
2018-06-04T06:02:37.430Z,84.81
2018-06-04T06:05:11.867Z,84.19
2018-06-04T06:07:40.861Z,84.21
2018-06-04T06:10:10.040Z,83.99
2018-06-04T06:12:39.742Z,84.14
2018-06-04T06:15:08.794Z,84.35
2018-06-04T06:17:37.917Z,84.38
2018-06-04T06:20:07.017Z,84.29
2018-06-04T06:22:36.137Z,84.47
2018-06-04T06:25:06.288Z,84.85
2018-06-04T06:27:35.293Z,84.71
2018-06-04T06:30:04.614Z,84.34
2018-06-04T06:32:33.635Z,84.10
2018-06-04T06:35:02.640Z,83.84
2018-06-04T06:37:32.020Z,83.26
2018-06-04T06:40:01.098Z,83.01
2018-06-04T06:42:30.112Z,82.58
2018-06-04T06:45:04.884Z,82.36
2018-06-04T06:47:33.951Z,82.80
2018-06-04T06:50:03.237Z,83.24
2018-06-04T06:52:32.779Z,82.93
2018-06-04T06:55:01.857Z,82.58
2018-06-04T06:57:30.957Z,82.76
2018-06-04T07:00:00.931Z,82.65
2018-06-04T07:02:30.337Z,82.33
2018-06-04T07:04:59.381Z,82.55
2018-06-04T07:07:28.425Z,82.87
2018-06-04T07:09:57.433Z,83.24
2018-06-04T07:12:26.511Z,82.69
2018-06-04T07:14:55.561Z,82.41
2018-06-04T07:17:24.819Z,82.47
2018-06-04T07:19:54.181Z,81.81
2018-06-04T07:22:23.531Z,81.49
2018-06-04T07:24:52.548Z,81.34
2018-06-04T07:27:21.581Z,81.47
2018-06-04T07:29:50.648Z,81.53
2018-06-04T07:32:19.675Z,81.41
2018-06-04T07:34:48.718Z,81.45
2018-06-04T07:37:17.994Z,81.15
2018-06-04T07:39:47.014Z,81.07
2018-06-04T07:42:16.013Z,81.19
2018-06-04T07:44:45.046Z,80.69
2018-06-04T07:47:14.164Z,80.40
2018-06-04T07:49:43.183Z,80.85
2018-06-04T07:52:12.338Z,80.49
2018-06-04T07:54:41.415Z,80.42
2018-06-04T07:57:10.631Z,80.08
2018-06-04T07:59:39.705Z,80.00
2018-06-04T08:02:08.838Z,80.16
2018-06-04T08:04:37.879Z,80.31
2018-06-04T08:07:06.877Z,80.62
2018-06-04T08:09:35.945Z,80.67
2018-06-04T08:12:05.268Z,81.10
2018-06-04T08:14:34.362Z,81.16
2018-06-04T08:17:03.437Z,81.13
2018-06-04T08:19:32.488Z,81.31
2018-06-04T08:22:01.539Z,80.80
2018-06-04T08:24:30.560Z,80.55
2018-06-04T08:27:00.624Z,80.28
2018-06-04T08:29:30.941Z,80.13
2018-06-04T08:32:00.353Z,80.30
2018-06-04T08:34:30.228Z,80.42
2018-06-04T08:36:59.560Z,80.27
2018-06-04T08:39:29.060Z,80.22
2018-06-04T08:41:58.277Z,80.23
2018-06-04T08:44:27.399Z,79.89
2018-06-04T08:46:56.482Z,79.60
2018-06-04T08:49:25.707Z,79.39
2018-06-04T08:51:54.800Z,79.50
2018-06-04T08:54:23.842Z,79.43
2018-06-04T08:56:52.914Z,79.64
2018-06-04T08:59:21.992Z,79.73
2018-06-04T09:01:51.075Z,79.86
2018-06-04T09:04:20.221Z,79.67
2018-06-04T09:06:49.269Z,79.18
2018-06-04T09:09:18.338Z,79.40
2018-06-04T09:11:47.565Z,79.77
2018-06-04T09:14:16.590Z,79.49
2018-06-04T09:16:45.677Z,79.20
2018-06-04T09:19:14.699Z,79.00
2018-06-04T09:21:43.721Z,79.04
2018-06-04T09:24:12.712Z,78.55
2018-06-04T09:26:41.740Z,79.25
2018-06-04T09:29:11.076Z,79.27
2018-06-04T09:31:40.172Z,79.13
2018-06-04T09:34:09.200Z,78.87
2018-06-04T09:36:38.214Z,78.52
2018-06-04T09:39:08.128Z,78.33
2018-06-04T09:41:37.288Z,78.43
2018-06-04T09:44:06.319Z,78.02
2018-06-04T09:46:35.366Z,78.21
2018-06-04T09:49:04.489Z,77.95
2018-06-04T09:51:33.541Z,78.04
2018-06-04T09:54:02.558Z,77.83
2018-06-04T09:56:31.568Z,77.68
2018-06-04T09:59:00.674Z,77.39
2018-06-04T10:01:30.060Z,77.29
2018-06-04T10:03:59.068Z,77.73
2018-06-04T10:06:28.601Z,77.53
2018-06-04T10:08:58.734Z,77.27
2018-06-04T10:11:27.772Z,77.56
2018-06-04T10:13:57.404Z,76.95
2018-06-04T10:16:26.408Z,76.90
2018-06-04T10:18:55.450Z,76.77
2018-06-04T10:21:24.516Z,77.08
2018-06-04T10:23:53.597Z,76.82
2018-06-04T10:26:22.684Z,77.18
2018-06-04T10:28:51.760Z,76.87
2018-06-04T10:31:20.790Z,75.97
2018-06-04T10:33:49.883Z,76.23
2018-06-04T10:36:19.006Z,76.06
2018-06-04T10:38:48.000Z,75.98
2018-06-04T10:41:18.211Z,75.83
2018-06-04T10:43:47.296Z,75.35
2018-06-04T10:46:16.288Z,74.89
2018-06-04T10:48:45.379Z,75.36
2018-06-04T10:51:14.419Z,75.09
2018-06-04T10:53:43.496Z,75.23
2018-06-04T11:09:12.582Z,75.06
2018-06-04T11:11:41.584Z,74.75
2018-06-04T11:14:10.891Z,74.71
2018-06-04T11:16:39.939Z,74.45
2018-06-04T11:19:08.950Z,73.84
2018-06-04T11:21:38.036Z,74.07
2018-06-04T11:24:07.153Z,74.72
2018-06-04T11:26:36.192Z,74.10
2018-06-04T11:29:05.572Z,74.26
2018-06-04T11:31:34.572Z,73.37
2018-06-04T11:34:03.571Z,73.51
2018-06-04T11:36:32.633Z,73.81
2018-06-04T11:39:01.993Z,73.54
2018-06-04T11:41:31.010Z,73.52
2018-06-04T11:44:00.090Z,72.87
2018-06-04T11:46:29.104Z,72.64
2018-06-04T11:48:58.117Z,71.89
2018-06-04T11:51:27.149Z,72.56
2018-06-04T11:53:56.236Z,72.25
2018-06-04T11:56:25.290Z,71.91
2018-06-04T11:58:54.236Z,71.72
2018-06-04T12:01:23.239Z,71.52
2018-06-04T12:03:52.241Z,70.84
2018-06-04T12:06:21.542Z,71.23
2018-06-04T12:08:50.596Z,70.06
2018-06-04T12:11:19.658Z,70.53
2018-06-04T12:13:48.678Z,70.30
2018-06-04T12:16:17.692Z,69.89
2018-06-04T12:18:46.658Z,70.37
2018-06-04T12:21:15.647Z,70.02
2018-06-04T12:23:44.656Z,69.92
2018-06-04T12:26:13.704Z,69.44
2018-06-04T12:28:42.720Z,69.53
2018-06-04T12:31:11.740Z,68.21
2018-06-04T12:33:40.753Z,68.69
2018-06-04T12:36:09.809Z,68.45
2018-06-04T12:38:39.464Z,68.37
2018-06-04T12:41:08.498Z,68.61
2018-06-04T12:43:37.500Z,67.97
2018-06-04T12:46:06.616Z,67.16
2018-06-04T12:48:35.620Z,65.75
2018-06-04T12:51:04.648Z,66.50
2018-06-04T12:53:33.693Z,65.39
2018-06-04T12:56:02.692Z,65.39
2018-06-04T12:58:31.812Z,65.28
2018-06-04T13:01:00.872Z,65.08
2018-06-04T13:03:29.897Z,65.44
2018-06-04T13:05:58.944Z,65.12
2018-06-04T13:08:28.072Z,65.20
2018-06-04T13:10:57.074Z,64.88
2018-06-04T13:13:26.072Z,65.15
2018-06-04T13:15:55.116Z,65.21
2018-06-04T13:18:24.180Z,65.64
2018-06-04T13:20:53.225Z,65.57
2018-06-04T13:23:22.261Z,67.54
2018-06-04T13:25:51.326Z,68.22
2018-06-04T13:28:20.420Z,68.51
2018-06-04T13:30:49.454Z,67.88
2018-06-04T13:33:18.650Z,67.54
2018-06-04T13:35:47.697Z,67.94
2018-06-04T13:38:17.056Z,67.99
2018-06-04T13:40:46.082Z,67.73
2018-06-04T13:43:15.048Z,67.59
2018-06-04T13:45:44.238Z,68.16
2018-06-04T13:48:13.264Z,67.34
2018-06-04T13:50:42.940Z,67.83
2018-06-04T13:53:12.076Z,67.90
2018-06-04T13:55:41.206Z,68.98
2018-06-04T13:58:10.393Z,68.65
2018-06-04T14:00:39.743Z,68.14
2018-06-04T14:03:08.737Z,68.35
2018-06-04T14:05:37.789Z,67.91
2018-06-04T14:08:06.979Z,67.91
2018-06-04T14:10:36.176Z,68.27
2018-06-04T14:13:05.238Z,67.92
2018-06-04T14:15:34.268Z,68.42
2018-06-04T14:18:03.805Z,68.03
2018-06-04T14:20:32.960Z,67.60
2018-06-04T14:23:02.008Z,67.16
2018-06-04T14:25:31.456Z,66.89
2018-06-04T14:28:00.484Z,66.35
2018-06-04T14:30:29.622Z,66.32
2018-06-04T14:32:58.668Z,66.57
2018-06-04T14:35:28.041Z,66.92
2018-06-04T14:37:57.081Z,67.45
2018-06-04T14:40:26.152Z,67.10
2018-06-04T14:42:55.132Z,66.84
2018-06-04T14:45:24.142Z,66.84
2018-06-04T14:47:53.136Z,66.49
2018-06-04T14:50:22.229Z,66.36
2018-06-04T14:52:51.316Z,66.39
2018-06-04T14:55:20.324Z,66.34
2018-06-04T14:57:49.322Z,66.50
2018-06-04T15:00:18.676Z,67.44
2018-06-04T15:02:47.696Z,66.58
2018-06-04T15:05:16.777Z,66.34
2018-06-04T15:07:45.820Z,67.03
2018-06-04T15:10:14.904Z,66.80
2018-06-04T15:12:48.894Z,66.61
2018-06-04T15:15:17.999Z,66.45
2018-06-04T15:17:46.970Z,66.25
2018-06-04T15:20:16.026Z,66.07
2018-06-04T15:22:45.059Z,66.20
2018-06-04T15:25:14.092Z,66.58
2018-06-04T15:27:43.243Z,67.11
2018-06-04T15:30:12.317Z,67.15
2018-06-04T15:32:41.451Z,67.77
2018-06-04T15:35:10.537Z,67.91
2018-06-04T15:37:39.676Z,67.43
2018-06-04T15:40:08.709Z,67.70
2018-06-04T15:42:37.708Z,67.50
2018-06-04T15:58:06.864Z,67.37
2018-06-04T16:00:36.136Z,67.82
2018-06-04T16:03:05.159Z,68.81
2018-06-04T16:05:34.524Z,69.18
2018-06-04T16:08:03.553Z,68.69
2018-06-04T16:10:32.615Z,68.80
2018-06-04T16:13:01.668Z,68.02
2018-06-04T16:15:37.128Z,68.65
2018-06-04T16:18:06.173Z,68.27
2018-06-04T16:20:35.236Z,68.14
2018-06-04T16:23:04.225Z,68.46
2018-06-04T16:25:33.236Z,68.07
2018-06-04T16:28:02.468Z,68.02
2018-06-04T16:30:31.516Z,68.46
2018-06-04T16:33:00.550Z,68.68
2018-06-04T16:35:29.681Z,68.66
2018-06-04T16:37:58.734Z,68.51
2018-06-04T16:40:27.827Z,68.59
2018-06-04T16:42:57.029Z,68.37
2018-06-04T16:45:26.139Z,68.74
2018-06-04T16:47:55.213Z,68.71
2018-06-04T16:50:24.262Z,68.31
2018-06-04T16:52:53.240Z,68.52
2018-06-04T16:55:22.284Z,68.02
2018-06-04T16:57:51.348Z,68.08
2018-06-04T17:00:20.525Z,68.53
2018-06-04T17:02:49.576Z,67.98
2018-06-04T17:05:18.602Z,68.30
2018-06-04T17:07:47.659Z,68.14
2018-06-04T17:10:16.734Z,68.32
2018-06-04T17:12:45.776Z,68.49
2018-06-04T17:15:14.800Z,69.00
2018-06-04T17:17:43.796Z,69.41
2018-06-04T17:20:12.805Z,69.45
2018-06-04T17:22:41.820Z,69.34
2018-06-04T17:25:10.867Z,69.56
2018-06-04T17:27:39.876Z,69.94
2018-06-04T17:30:09.003Z,69.83
2018-06-04T17:32:38.118Z,69.23
2018-06-04T17:35:07.156Z,68.44
2018-06-04T17:37:36.260Z,68.37
2018-06-04T17:40:05.311Z,68.29
2018-06-04T17:42:34.396Z,68.85
2018-06-04T17:45:03.471Z,68.48
2018-06-04T17:47:32.473Z,68.43
2018-06-04T17:50:01.524Z,69.01
2018-06-04T17:52:30.576Z,69.16
2018-06-04T17:54:59.667Z,68.36
2018-06-04T17:57:28.724Z,68.48
2018-06-04T17:59:57.728Z,68.91
2018-06-04T18:02:26.748Z,69.09
2018-06-04T18:04:55.795Z,69.59
2018-06-04T18:07:24.821Z,70.68
2018-06-04T18:09:53.844Z,70.66
2018-06-04T18:12:23.162Z,70.00
2018-06-04T18:14:52.245Z,70.27
2018-06-04T18:17:21.356Z,70.64
2018-06-04T18:19:50.468Z,70.29
2018-06-04T18:22:19.564Z,70.21
2018-06-04T18:24:48.556Z,70.43
2018-06-04T18:27:17.599Z,70.18
2018-06-04T18:29:46.614Z,70.02
2018-06-04T18:32:15.645Z,69.71
2018-06-04T18:34:44.689Z,69.42
2018-06-04T18:37:13.799Z,69.84
2018-06-04T18:39:42.936Z,69.66
2018-06-04T18:42:11.953Z,69.90
2018-06-04T18:44:40.975Z,69.54
2018-06-04T18:47:09.973Z,69.63
2018-06-04T18:49:39.016Z,69.43
2018-06-04T18:52:08.259Z,69.88
2018-06-04T18:54:37.296Z,70.21
2018-06-04T18:57:06.676Z,69.78
2018-06-04T18:59:35.743Z,70.21
2018-06-04T19:02:05.763Z,70.71
2018-06-04T19:04:34.815Z,70.77
2018-06-04T19:07:03.885Z,70.91
2018-06-04T19:09:32.925Z,70.35
2018-06-04T19:12:01.958Z,70.78
2018-06-04T19:14:31.081Z,71.39
2018-06-04T19:17:00.175Z,71.72
2018-06-04T19:19:29.196Z,71.68
2018-06-04T19:21:58.267Z,71.07
2018-06-04T19:24:27.287Z,71.28
2018-06-04T19:26:56.499Z,72.10
2018-06-04T19:29:25.462Z,71.80
2018-06-04T19:31:57.182Z,71.83
2018-06-04T19:34:32.167Z,71.29
2018-06-04T19:37:06.156Z,71.02
2018-06-04T19:39:35.159Z,70.93
2018-06-04T19:42:04.205Z,70.30
2018-06-04T19:44:33.263Z,70.53
2018-06-04T19:47:02.446Z,70.56
2018-06-04T19:49:31.420Z,70.63
2018-06-04T19:52:00.677Z,70.67
2018-06-04T19:54:29.691Z,70.75
2018-06-04T19:56:58.916Z,70.93
2018-06-04T19:59:28.023Z,71.56
2018-06-04T20:02:02.578Z,71.86
2018-06-04T20:04:31.611Z,72.40
2018-06-04T20:07:01.136Z,72.17
2018-06-04T20:09:30.145Z,72.86
2018-06-04T20:12:00.122Z,72.99
2018-06-04T20:14:34.815Z,74.21
2018-06-04T20:17:03.918Z,74.21
2018-06-04T20:19:32.969Z,74.84
2018-06-04T20:22:02.017Z,74.34
2018-06-04T20:24:31.131Z,74.67
2018-06-04T20:27:00.181Z,74.14
2018-06-04T20:29:29.302Z,74.32
2018-06-04T20:31:58.342Z,74.41
2018-06-04T20:34:27.387Z,74.28
2018-06-04T20:36:56.420Z,74.02
2018-06-04T20:39:25.479Z,74.19
2018-06-04T20:41:54.811Z,73.67
2018-06-04T20:44:23.806Z,73.43
2018-06-04T20:46:52.901Z,73.33
2018-06-04T20:49:21.929Z,73.08
2018-06-04T20:51:51.141Z,72.63
2018-06-04T20:54:20.190Z,72.83
2018-06-04T20:56:49.253Z,72.80
2018-06-04T20:59:18.317Z,72.54
2018-06-04T21:01:47.347Z,72.91
2018-06-04T21:04:16.381Z,73.05
2018-06-04T21:06:45.947Z,72.75
2018-06-04T21:09:14.957Z,72.81
2018-06-04T21:11:43.985Z,72.85
2018-06-04T21:14:12.984Z,72.75
2018-06-04T21:16:42.144Z,72.30
2018-06-04T21:19:11.211Z,73.12
2018-06-04T21:21:40.211Z,73.46
2018-06-04T21:24:09.289Z,73.55
2018-06-04T21:26:38.301Z,73.99
2018-06-04T21:29:07.293Z,74.12
2018-06-04T21:31:36.444Z,73.99
2018-06-04T21:34:05.751Z,73.21
2018-06-04T21:36:34.759Z,73.51
2018-06-04T21:39:05.101Z,73.06
2018-06-04T21:41:34.136Z,72.63
2018-06-04T21:44:03.149Z,73.03
2018-06-04T21:46:32.300Z,73.47
2018-06-04T21:49:01.404Z,74.12
2018-06-04T21:51:30.415Z,74.87
2018-06-04T21:53:59.450Z,75.00
2018-06-04T21:56:28.543Z,75.06
2018-06-04T21:58:57.625Z,75.09
2018-06-04T22:01:27.097Z,75.39
2018-06-04T22:03:56.148Z,75.82
2018-06-04T22:19:25.297Z,74.59
2018-06-04T22:21:54.314Z,74.42
2018-06-04T22:24:23.304Z,74.75
2018-06-04T22:26:52.400Z,75.04
2018-06-04T22:29:21.449Z,76.07
2018-06-04T22:31:50.507Z,76.43
2018-06-04T22:34:20.391Z,76.03
2018-06-04T22:36:54.884Z,76.08
2018-06-04T22:39:23.915Z,75.94
2018-06-04T22:41:53.031Z,75.65
2018-06-04T22:44:22.017Z,75.68
2018-06-04T22:46:51.039Z,75.95
2018-06-04T22:49:20.103Z,76.00
2018-06-04T22:51:49.100Z,76.33
2018-06-04T22:54:18.143Z,76.46
2018-06-04T22:56:47.235Z,76.80
2018-06-04T22:59:16.599Z,77.03
2018-06-04T23:01:45.615Z,77.28
2018-06-04T23:04:14.964Z,77.21
2018-06-04T23:06:44.550Z,77.33
2018-06-04T23:09:13.672Z,77.54
2018-06-04T23:11:42.798Z,77.94
2018-06-04T23:14:11.863Z,77.90
2018-06-04T23:16:40.888Z,77.47
2018-06-04T23:19:09.892Z,76.23
2018-06-04T23:21:38.940Z,76.42
2018-06-04T23:24:07.965Z,76.47
2018-06-04T23:26:36.960Z,75.97
2018-06-04T23:29:06.675Z,75.40
2018-06-04T23:31:35.807Z,75.03
2018-06-04T23:34:04.880Z,74.52
2018-06-04T23:36:33.900Z,74.85
2018-06-04T23:39:02.944Z,74.73
2018-06-04T23:41:32.070Z,75.31
2018-06-04T23:44:01.913Z,74.89
2018-06-04T23:46:30.980Z,74.93
2018-06-04T23:49:00.316Z,74.87
2018-06-04T23:51:29.392Z,74.45
2018-06-04T23:54:05.017Z,74.17
2018-06-04T23:56:34.069Z,73.98
2018-06-04T23:59:03.284Z,74.39
